createdAt,value
2023-02-25T00:00:28.614Z,69.19
2023-02-25T00:03:02.312Z,69.24
2023-02-25T00:05:35.228Z,69.17
2023-02-25T00:08:08.523Z,69.12
2023-02-25T00:10:41.687Z,69.13
2023-02-25T00:13:18.427Z,69.12
2023-02-25T00:15:49.876Z,69.16
2023-02-25T00:18:22.985Z,69.22
2023-02-25T00:20:56.332Z,69.13
2023-02-25T00:23:29.325Z,69.33
2023-02-25T00:26:03.467Z,69.44
2023-02-25T00:28:37.421Z,69.44
2023-02-25T00:31:12.650Z,69.39
2023-02-25T00:33:46.596Z,69.47
2023-02-25T00:36:22.095Z,69.40
2023-02-25T00:38:57.541Z,69.41
2023-02-25T00:41:31.747Z,69.39
2023-02-25T00:44:05.068Z,69.34
2023-02-25T00:46:38.250Z,69.28
2023-02-25T00:49:15.056Z,69.21
2023-02-25T00:51:48.727Z,69.20
2023-02-25T00:54:23.642Z,69.21
2023-02-25T00:56:56.796Z,69.25
2023-02-25T00:59:29.692Z,69.48
2023-02-25T01:02:02.552Z,69.39
2023-02-25T01:04:35.685Z,69.41
2023-02-25T01:07:09.112Z,69.35
2023-02-25T01:09:42.262Z,69.31
2023-02-25T01:12:15.714Z,69.47
2023-02-25T01:14:49.338Z,69.44
2023-02-25T01:17:22.712Z,69.53
2023-02-25T01:19:57.407Z,69.54
2023-02-25T01:22:30.519Z,69.70
2023-02-25T01:25:05.981Z,69.72
2023-02-25T01:27:40.527Z,69.78
2023-02-25T01:30:15.019Z,69.82
2023-02-25T01:32:48.356Z,69.89
2023-02-25T01:35:21.848Z,70.00
2023-02-25T01:37:56.723Z,70.12
2023-02-25T01:40:31.236Z,70.07
2023-02-25T01:43:05.798Z,70.03
2023-02-25T01:45:41.815Z,69.89
2023-02-25T01:48:18.265Z,69.96
2023-02-25T01:50:54.140Z,69.80
2023-02-25T01:53:32.388Z,69.59
2023-02-25T01:56:06.577Z,69.76
2023-02-25T01:58:40.317Z,69.89
2023-02-25T02:01:16.326Z,69.82
2023-02-25T02:03:50.952Z,69.82
2023-02-25T02:06:25.899Z,69.60
2023-02-25T02:09:00.137Z,69.62
2023-02-25T02:11:33.377Z,69.65
2023-02-25T02:14:07.898Z,69.68
2023-02-25T02:16:48.663Z,69.91
2023-02-25T02:19:29.202Z,69.86
2023-02-25T02:22:07.813Z,69.99
2023-02-25T02:25:07.965Z,69.96
2023-02-25T02:27:51.795Z,69.91
2023-02-25T02:30:43.172Z,69.88
2023-02-25T02:33:20.400Z,70.01
2023-02-25T02:35:57.236Z,69.90
2023-02-25T02:38:33.429Z,70.13
2023-02-25T02:41:10.092Z,70.20
2023-02-25T02:43:47.290Z,70.08
2023-02-25T02:46:23.982Z,70.10
2023-02-25T02:49:00.521Z,70.13
2023-02-25T02:51:36.919Z,70.23
2023-02-25T02:54:12.502Z,70.37
2023-02-25T02:56:48.113Z,70.34
2023-02-25T02:59:24.259Z,70.31
2023-02-25T03:04:43.774Z,70.17
2023-02-25T03:07:18.795Z,70.11
2023-02-25T03:09:54.295Z,70.10
2023-02-25T03:12:27.305Z,70.14
2023-02-25T03:15:00.898Z,70.21
2023-02-25T03:17:39.090Z,70.23
2023-02-25T03:20:16.775Z,70.31
2023-02-25T03:22:55.941Z,70.51
2023-02-25T03:25:32.026Z,70.58
2023-02-25T03:28:08.594Z,70.58
2023-02-25T03:30:44.602Z,70.82
2023-02-25T03:33:21.636Z,70.91
2023-02-25T03:35:57.574Z,70.89
2023-02-25T03:38:33.980Z,70.81
2023-02-25T03:41:12.343Z,70.75
2023-02-25T03:43:48.121Z,70.73
2023-02-25T03:46:23.410Z,70.61
2023-02-25T03:48:59.006Z,70.75
2023-02-25T03:51:34.952Z,70.83
2023-02-25T03:54:09.000Z,70.69
2023-02-25T03:56:47.899Z,70.57
2023-02-25T03:59:23.843Z,70.74
2023-02-25T04:01:58.788Z,70.92
2023-02-25T04:04:32.202Z,70.98
2023-02-25T04:07:05.318Z,71.05
2023-02-25T04:09:48.375Z,71.07
2023-02-25T04:12:35.819Z,70.86
2023-02-25T04:15:13.755Z,70.76
2023-02-25T04:17:46.975Z,70.71
2023-02-25T04:20:20.695Z,70.58
2023-02-25T04:22:53.774Z,70.67
2023-02-25T04:25:26.968Z,70.66
2023-02-25T04:27:59.996Z,70.52
2023-02-25T04:30:34.374Z,70.62
2023-02-25T04:33:08.351Z,70.52
2023-02-25T04:35:41.660Z,70.52
2023-02-25T04:38:14.886Z,70.65
2023-02-25T04:40:47.955Z,70.67
2023-02-25T04:43:21.045Z,70.89
2023-02-25T04:45:56.404Z,71.19
2023-02-25T04:48:29.562Z,71.37
2023-02-25T04:51:04.936Z,71.21
2023-02-25T04:53:38.187Z,71.03
2023-02-25T04:56:12.424Z,70.88
2023-02-25T04:58:46.103Z,70.77
2023-02-25T05:01:19.397Z,70.66
2023-02-25T05:03:54.955Z,70.85
2023-02-25T05:06:28.565Z,70.98
2023-02-25T05:09:02.251Z,71.28
2023-02-25T05:11:35.476Z,71.50
2023-02-25T05:14:08.588Z,71.74
2023-02-25T05:16:41.708Z,71.67
2023-02-25T05:19:19.527Z,71.63
2023-02-25T05:21:51.549Z,71.69
2023-02-25T05:24:24.640Z,71.31
2023-02-25T05:26:58.229Z,71.26
2023-02-25T05:29:31.144Z,71.25
2023-02-25T05:32:04.882Z,71.39
2023-02-25T05:34:38.243Z,71.54
2023-02-25T05:37:11.249Z,71.53
2023-02-25T05:39:44.422Z,71.58
2023-02-25T05:42:17.780Z,71.49
2023-02-25T05:44:51.251Z,71.62
2023-02-25T05:47:24.527Z,71.82
2023-02-25T05:49:57.718Z,71.83
2023-02-25T05:52:30.892Z,71.81
2023-02-25T05:55:04.293Z,71.88
2023-02-25T05:57:37.178Z,72.02
2023-02-25T06:00:15.294Z,72.08
2023-02-25T06:02:49.072Z,72.21
2023-02-25T06:05:22.374Z,72.23
2023-02-25T06:07:55.871Z,72.45
2023-02-25T06:10:29.900Z,72.52
2023-02-25T06:13:04.335Z,72.45
2023-02-25T06:15:41.519Z,72.32
2023-02-25T06:18:18.115Z,72.21
2023-02-25T06:20:55.273Z,72.04
2023-02-25T06:23:32.036Z,72.03
2023-02-25T06:26:14.470Z,72.03
2023-02-25T06:28:50.393Z,72.06
2023-02-25T06:31:28.608Z,71.96
2023-02-25T06:34:18.415Z,71.74
2023-02-25T06:36:52.899Z,71.59
2023-02-25T06:39:26.465Z,71.51
2023-02-25T06:41:59.562Z,71.54
2023-02-25T06:44:34.072Z,71.61
2023-02-25T06:47:07.136Z,71.66
2023-02-25T06:49:40.352Z,71.62
2023-02-25T06:52:13.326Z,71.56
2023-02-25T06:57:27.266Z,71.77
2023-02-25T07:00:05.370Z,71.96
2023-02-25T07:02:38.861Z,72.05
2023-02-25T07:05:12.800Z,72.27
2023-02-25T07:07:45.781Z,72.56
2023-02-25T07:10:19.188Z,72.87
2023-02-25T07:15:32.604Z,73.44
2023-02-25T07:18:06.749Z,73.74
2023-02-25T07:20:40.389Z,73.99
2023-02-25T07:23:13.567Z,74.13
2023-02-25T07:25:46.829Z,74.28
2023-02-25T07:28:20.147Z,74.54
2023-02-25T07:30:53.619Z,74.78
2023-02-25T07:33:26.998Z,74.95
2023-02-25T07:36:00.243Z,75.07
2023-02-25T07:38:33.338Z,74.87
2023-02-25T07:41:11.193Z,75.19
2023-02-25T07:43:43.298Z,75.27
2023-02-25T07:46:16.237Z,75.25
2023-02-25T07:48:49.641Z,75.31
2023-02-25T07:51:25.257Z,75.57
2023-02-25T07:54:00.681Z,75.68
2023-02-25T07:56:34.162Z,75.44
2023-02-25T07:59:07.226Z,75.46
2023-02-25T08:01:40.615Z,75.78
2023-02-25T08:04:14.127Z,75.84
2023-02-25T08:06:47.551Z,75.85
2023-02-25T08:09:20.868Z,75.97
2023-02-25T08:11:54.176Z,75.88
2023-02-25T08:14:27.388Z,75.99
2023-02-25T08:17:02.174Z,76.07
2023-02-25T08:19:35.234Z,76.20
2023-02-25T08:22:10.781Z,76.30
2023-02-25T08:24:43.772Z,76.34
2023-02-25T08:27:16.755Z,76.35
2023-02-25T08:29:49.870Z,76.36
2023-02-25T08:32:24.792Z,76.43
2023-02-25T08:34:58.145Z,76.49
2023-02-25T08:37:31.346Z,76.44
2023-02-25T08:40:10.000Z,76.51
2023-02-25T08:42:43.332Z,76.49
2023-02-25T08:45:16.569Z,76.51
2023-02-25T08:47:49.654Z,76.47
2023-02-25T08:50:24.002Z,76.56
2023-02-25T08:52:57.960Z,76.49
2023-02-25T08:55:30.997Z,76.44
2023-02-25T08:58:04.302Z,76.40
2023-02-25T09:00:37.950Z,76.44
2023-02-25T09:03:11.071Z,76.37
2023-02-25T09:05:44.223Z,76.22
2023-02-25T09:08:20.441Z,76.25
2023-02-25T09:10:53.497Z,76.33
2023-02-25T09:13:26.740Z,76.39
2023-02-25T09:16:02.369Z,76.44
2023-02-25T09:18:35.982Z,76.52
2023-02-25T09:21:10.990Z,76.59
2023-02-25T09:23:44.611Z,76.29
2023-02-25T09:26:17.794Z,76.38
2023-02-25T09:28:51.394Z,76.18
2023-02-25T09:31:25.268Z,76.27
2023-02-25T09:33:59.120Z,76.46
2023-02-25T09:36:34.085Z,76.54
2023-02-25T09:39:09.801Z,76.66
2023-02-25T09:41:48.603Z,76.57
2023-02-25T09:44:24.889Z,76.70
2023-02-25T09:47:00.982Z,76.94
2023-02-25T09:49:38.180Z,76.89
2023-02-25T09:52:17.024Z,76.87
2023-02-25T09:54:52.684Z,77.04
2023-02-25T09:57:26.378Z,77.17
2023-02-25T10:00:00.390Z,77.26
2023-02-25T10:02:39.419Z,77.48
2023-02-25T10:05:26.685Z,77.64
2023-02-25T10:08:06.678Z,77.84
2023-02-25T10:10:46.865Z,77.89
2023-02-25T10:13:27.347Z,78.19
2023-02-25T10:16:06.424Z,78.42
2023-02-25T10:18:47.633Z,78.65
2023-02-25T10:21:27.131Z,78.77
2023-02-25T10:24:29.490Z,78.79
2023-02-25T10:27:07.607Z,78.95
2023-02-25T10:29:45.973Z,79.09
2023-02-25T10:32:23.350Z,79.03
2023-02-25T10:34:59.753Z,79.15
2023-02-25T10:37:37.737Z,79.19
2023-02-25T10:42:59.761Z,78.84
2023-02-25T10:45:33.786Z,78.99
2023-02-25T10:48:10.502Z,78.85
2023-02-25T10:50:46.244Z,78.86
2023-02-25T10:53:19.893Z,78.85
2023-02-25T10:55:55.055Z,79.00
2023-02-25T10:58:35.194Z,79.08
2023-02-25T11:01:15.803Z,79.01
2023-02-25T11:03:59.121Z,78.88
2023-02-25T11:06:35.546Z,79.08
2023-02-25T11:09:13.727Z,79.20
2023-02-25T11:11:55.123Z,79.15
2023-02-25T11:14:31.042Z,79.25
2023-02-25T11:17:09.407Z,79.24
2023-02-25T11:19:44.641Z,79.10
2023-02-25T11:22:22.872Z,79.31
2023-02-25T11:25:02.489Z,79.25
2023-02-25T11:27:39.584Z,79.51
2023-02-25T11:30:24.436Z,79.50
2023-02-25T11:32:59.503Z,79.34
2023-02-25T11:35:36.008Z,79.43
2023-02-25T11:38:18.204Z,79.74
2023-02-25T11:40:51.442Z,79.88
2023-02-25T11:43:27.477Z,79.76
2023-02-25T11:46:04.209Z,79.92
2023-02-25T11:48:43.000Z,79.88
2023-02-25T11:51:21.498Z,79.87
2023-02-25T11:54:04.802Z,80.15
2023-02-25T11:56:40.393Z,80.36
2023-02-25T11:59:26.005Z,80.37
2023-02-25T12:05:43.618Z,80.33
2023-02-25T12:08:39.097Z,80.38
2023-02-25T12:11:45.199Z,80.54
2023-02-25T12:15:06.310Z,80.54
2023-02-25T12:17:58.442Z,80.50
2023-02-25T12:20:56.564Z,80.67
2023-02-25T12:24:12.662Z,80.79
2023-02-25T12:27:10.618Z,80.82
2023-02-25T12:30:21.085Z,80.79
2023-02-25T12:33:06.418Z,80.67
2023-02-25T12:36:04.884Z,80.77
2023-02-25T12:39:11.727Z,80.74
2023-02-25T12:41:48.705Z,80.56
2023-02-25T12:44:58.355Z,80.66
2023-02-25T12:47:48.978Z,80.69
2023-02-25T12:53:38.588Z,80.59
2023-02-25T12:56:24.263Z,80.76
2023-02-25T12:59:25.038Z,80.83
2023-02-25T13:02:21.988Z,80.96
2023-02-25T13:05:05.581Z,80.85
2023-02-25T13:08:22.866Z,80.98
2023-02-25T13:14:11.023Z,80.73
2023-02-25T13:16:54.633Z,81.05
2023-02-25T13:19:41.261Z,81.11
2023-02-25T13:22:24.731Z,81.36
2023-02-25T13:25:01.608Z,81.24
2023-02-25T13:28:14.992Z,81.12
2023-02-25T13:34:01.349Z,81.28
2023-02-25T13:36:42.522Z,81.46
2023-02-25T13:39:38.303Z,81.37
2023-02-25T13:42:43.272Z,81.51
2023-02-25T13:45:54.774Z,81.54
2023-02-25T13:48:41.335Z,81.43
2023-02-25T13:51:43.408Z,81.42
2023-02-25T13:54:37.113Z,81.33
2023-02-25T13:57:18.364Z,81.40
2023-02-25T14:00:07.208Z,81.51
2023-02-25T14:03:05.578Z,81.67
2023-02-25T14:05:52.672Z,81.71
2023-02-25T14:08:46.502Z,81.64
2023-02-25T14:12:12.990Z,81.82
2023-02-25T14:15:05.249Z,81.72
2023-02-25T14:17:49.291Z,81.59
2023-02-25T14:20:31.330Z,81.54
2023-02-25T14:23:08.092Z,81.31
2023-02-25T14:25:47.032Z,81.16
2023-02-25T14:28:24.845Z,81.24
2023-02-25T14:31:05.872Z,81.19
2023-02-25T14:34:10.230Z,81.02
2023-02-25T14:36:55.129Z,80.87
2023-02-25T14:39:39.879Z,80.78
2023-02-25T14:42:21.543Z,80.16
2023-02-25T14:44:57.820Z,79.82
2023-02-25T14:47:34.215Z,79.94
2023-02-25T14:50:10.642Z,80.25
2023-02-25T14:53:39.301Z,80.07
2023-02-25T15:00:05.178Z,80.14
2023-02-25T15:02:55.490Z,79.97
2023-02-25T15:05:35.383Z,80.33
2023-02-25T15:11:42.825Z,80.27
2023-02-25T15:14:48.900Z,80.25
2023-02-25T15:17:53.447Z,80.34
2023-02-25T15:20:35.350Z,80.33
2023-02-25T15:23:13.945Z,80.03
2023-02-25T15:25:53.006Z,80.10
2023-02-25T15:28:46.765Z,80.14
2023-02-25T15:31:38.767Z,80.24
2023-02-25T15:34:37.833Z,80.26
2023-02-25T15:37:47.075Z,80.10
2023-02-25T15:40:45.476Z,80.05
2023-02-25T15:43:44.519Z,80.08
2023-02-25T15:49:34.546Z,79.92
2023-02-25T15:52:10.931Z,79.86
2023-02-25T15:54:52.600Z,79.98
2023-02-25T15:57:42.060Z,80.22
2023-02-25T16:01:07.254Z,80.24
2023-02-25T16:03:44.904Z,80.14
2023-02-25T16:06:21.741Z,80.17
2023-02-25T16:08:58.344Z,80.29
2023-02-25T16:11:36.411Z,80.17
2023-02-25T16:14:14.406Z,80.21
2023-02-25T16:16:50.785Z,80.12
2023-02-25T16:19:26.751Z,80.09
2023-02-25T16:22:04.109Z,80.08
2023-02-25T16:24:38.849Z,80.03
2023-02-25T16:27:16.312Z,80.09
2023-02-25T16:29:55.566Z,80.19
2023-02-25T16:32:34.368Z,79.96
2023-02-25T16:37:55.751Z,80.11
2023-02-25T16:40:31.894Z,80.04
2023-02-25T16:43:05.898Z,80.23
2023-02-25T16:45:41.952Z,80.21
2023-02-25T16:48:20.400Z,80.27
2023-02-25T16:50:54.752Z,80.20
2023-02-25T16:53:29.741Z,80.21
2023-02-25T16:56:03.374Z,80.29
2023-02-25T16:58:36.724Z,80.29
2023-02-25T17:01:15.130Z,80.29
2023-02-25T17:03:49.236Z,80.23
2023-02-25T17:06:23.666Z,80.33
2023-02-25T17:08:56.997Z,80.26
2023-02-25T17:11:30.429Z,80.19
2023-02-25T17:14:05.970Z,79.80
2023-02-25T17:16:43.756Z,79.70
2023-02-25T17:19:17.246Z,79.64
2023-02-25T17:21:53.597Z,79.94
2023-02-25T17:24:29.540Z,79.95
2023-02-25T17:27:03.478Z,79.91
2023-02-25T17:29:38.541Z,79.88
2023-02-25T17:32:25.324Z,79.88
2023-02-25T17:35:01.240Z,79.87
2023-02-25T17:37:35.190Z,79.80
2023-02-25T17:40:11.672Z,79.87
2023-02-25T17:42:46.360Z,79.95
2023-02-25T17:45:46.697Z,79.63
2023-02-25T17:48:22.241Z,79.81
2023-02-25T17:50:57.784Z,79.88
2023-02-25T17:53:42.983Z,79.84
2023-02-25T17:56:21.251Z,79.81
2023-02-25T17:58:56.334Z,79.74
2023-02-25T18:01:31.598Z,79.86
2023-02-25T18:04:07.096Z,79.92
2023-02-25T18:06:45.064Z,79.90
2023-02-25T18:09:41.106Z,79.84
2023-02-25T18:15:16.006Z,79.67
2023-02-25T18:17:53.185Z,79.54
2023-02-25T18:20:31.916Z,79.31
2023-02-25T18:23:06.322Z,79.61
2023-02-25T18:25:41.488Z,79.75
2023-02-25T18:28:17.358Z,80.02
2023-02-25T18:30:52.590Z,79.77
2023-02-25T18:33:25.818Z,79.85
2023-02-25T18:35:59.318Z,79.89
2023-02-25T18:38:37.274Z,79.95
2023-02-25T18:41:12.132Z,79.90
2023-02-25T18:43:45.387Z,80.05
2023-02-25T18:46:18.437Z,80.16
2023-02-25T18:48:58.464Z,79.97
2023-02-25T18:51:31.664Z,80.04
2023-02-25T18:54:05.609Z,79.91
2023-02-25T18:56:39.255Z,79.84
2023-02-25T18:59:12.583Z,79.62
2023-02-25T19:01:49.537Z,79.75
2023-02-25T19:04:27.078Z,79.35
2023-02-25T19:07:07.927Z,79.63
2023-02-25T19:09:41.871Z,79.70
2023-02-25T19:12:29.950Z,79.54
2023-02-25T19:15:19.626Z,79.59
2023-02-25T19:17:53.182Z,79.71
2023-02-25T19:20:26.906Z,79.63
2023-02-25T19:23:00.180Z,79.89
2023-02-25T19:25:36.852Z,79.98
2023-02-25T19:28:11.092Z,79.87
2023-02-25T19:30:45.356Z,79.80
2023-02-25T19:33:18.605Z,79.90
2023-02-25T19:35:51.494Z,79.94
2023-02-25T19:38:24.761Z,79.95
2023-02-25T19:41:02.622Z,79.77
2023-02-25T19:43:34.492Z,79.71
2023-02-25T19:46:11.284Z,79.85
2023-02-25T19:48:44.469Z,80.11
2023-02-25T19:51:17.928Z,80.11
2023-02-25T19:53:51.062Z,80.05
2023-02-25T19:56:24.525Z,80.09
2023-02-25T19:59:00.188Z,80.27
2023-02-25T20:01:33.412Z,80.19
2023-02-25T20:04:06.789Z,80.10
2023-02-25T20:06:40.329Z,80.25
2023-02-25T20:09:13.495Z,80.33
2023-02-25T20:11:47.292Z,80.33
2023-02-25T20:14:20.332Z,80.31
2023-02-25T20:16:53.816Z,80.14
2023-02-25T20:19:28.159Z,80.18
2023-02-25T20:22:06.521Z,80.45
2023-02-25T20:24:39.911Z,80.63
2023-02-25T20:27:15.970Z,80.59
2023-02-25T20:29:49.226Z,80.64
2023-02-25T20:32:22.607Z,80.60
2023-02-25T20:34:56.634Z,80.61
2023-02-25T20:37:35.382Z,80.63
2023-02-25T20:40:12.186Z,80.93
2023-02-25T20:42:45.988Z,80.90
2023-02-25T20:45:21.006Z,81.05
2023-02-25T20:47:54.940Z,81.00
2023-02-25T20:50:30.401Z,80.95
2023-02-25T20:53:04.386Z,81.09
2023-02-25T20:55:38.534Z,81.19
2023-02-25T20:58:12.359Z,80.84
2023-02-25T21:00:45.578Z,80.73
2023-02-25T21:03:18.743Z,80.90
2023-02-25T21:05:51.954Z,81.03
2023-02-25T21:08:25.188Z,81.18
2023-02-25T21:11:00.903Z,80.96
2023-02-25T21:13:36.291Z,81.17
2023-02-25T21:16:10.537Z,80.91
2023-02-25T21:18:44.851Z,81.22
2023-02-25T21:21:21.207Z,81.29
2023-02-25T21:23:54.549Z,81.38
2023-02-25T21:26:27.406Z,81.41
2023-02-25T21:29:00.802Z,81.39
2023-02-25T21:31:34.172Z,81.25
2023-02-25T21:34:09.305Z,81.20
2023-02-25T21:36:42.735Z,81.30
2023-02-25T21:39:17.273Z,81.51
2023-02-25T21:41:50.492Z,81.38
2023-02-25T21:44:23.659Z,81.53
2023-02-25T21:46:58.295Z,81.57
2023-02-25T21:49:31.888Z,81.69
2023-02-25T21:52:05.564Z,81.78
2023-02-25T21:54:38.774Z,81.45
2023-02-25T21:57:11.841Z,81.35
2023-02-25T21:59:44.872Z,81.61
2023-02-25T22:02:17.976Z,81.85
2023-02-25T22:04:51.109Z,81.76
2023-02-25T22:07:24.160Z,81.71
2023-02-25T22:09:57.753Z,81.49
2023-02-25T22:12:30.932Z,81.44
2023-02-25T22:15:04.134Z,81.41
2023-02-25T22:17:37.297Z,81.52
2023-02-25T22:20:13.117Z,81.48
2023-02-25T22:22:46.256Z,81.40
2023-02-25T22:25:20.295Z,81.18
2023-02-25T22:27:53.341Z,81.49
2023-02-25T22:30:26.769Z,81.60
2023-02-25T22:32:59.825Z,81.70
2023-02-25T22:35:32.880Z,81.74
2023-02-25T22:38:06.011Z,81.37
2023-02-25T22:40:39.781Z,81.41
2023-02-25T22:43:12.958Z,81.38
2023-02-25T22:45:46.226Z,81.52
2023-02-25T22:48:19.370Z,81.74
2023-02-25T22:50:52.795Z,81.85
2023-02-25T22:53:26.015Z,81.79
2023-02-25T22:56:02.529Z,81.65
2023-02-25T22:58:37.071Z,81.80
2023-02-25T23:01:11.202Z,81.94
2023-02-25T23:03:44.537Z,82.00
2023-02-25T23:06:20.316Z,81.78
2023-02-25T23:08:53.955Z,81.58
2023-02-25T23:11:28.581Z,81.94
2023-02-25T23:14:04.262Z,82.02
2023-02-25T23:16:40.494Z,81.76
2023-02-25T23:19:16.516Z,81.75
2023-02-25T23:21:51.082Z,81.77
2023-02-25T23:24:24.149Z,81.75
2023-02-25T23:26:58.558Z,81.76
2023-02-25T23:29:31.477Z,81.88
2023-02-25T23:32:04.850Z,81.64
2023-02-25T23:34:38.168Z,81.54
2023-02-25T23:37:11.478Z,81.34
2023-02-25T23:39:44.647Z,81.67
2023-02-25T23:42:17.672Z,81.34
2023-02-25T23:44:51.140Z,81.40
2023-02-25T23:47:24.324Z,81.51
2023-02-25T23:49:57.786Z,81.37
2023-02-25T23:52:30.978Z,81.16
2023-02-25T23:55:05.739Z,81.10
2023-02-25T23:57:39.439Z,81.15
